Time;durP1;ratioP1;P1;durP2;ratioP2;P2;SDS_P1;SDS_P2;PMS_P1;PMS_P2;Temp;Humidity;BMP_temperature;BMP_pressure;BME280_temperature;BME280_humidity;BME280_pressure;Samples;Min_cycle;Max_cycle;Signal;HPM_P1;HPM_P2
2021/12/27 00:00:09;;;;;;;38.05;20.50;;;3.30;99.90;;;;;;4995903;28;20058;-86
2021/12/27 00:02:35;;;;;;;38.30;20.20;;;3.20;99.90;;;;;;4994135;28;20367;-86
2021/12/27 00:05:00;;;;;;;33.42;17.98;;;3.30;99.90;;;;;;4994228;28;20037;-87
2021/12/27 00:07:26;;;;;;;34.90;19.30;;;3.30;99.90;;;;;;4992480;28;20097;-86
2021/12/27 00:09:51;;;;;;;38.95;19.52;;;3.30;99.90;;;;;;4988432;28;20077;-86
2021/12/27 00:12:17;;;;;;;37.70;20.25;;;3.30;99.90;;;;;;4994238;28;20138;-86
2021/12/27 00:14:42;;;;;;;37.83;20.08;;;3.30;99.90;;;;;;4993644;28;20391;-86
2021/12/27 00:17:08;;;;;;;34.50;17.67;;;3.30;99.90;;;;;;4993977;28;20398;-86
2021/12/27 00:19:33;;;;;;;32.90;18.08;;;3.30;99.90;;;;;;4992323;28;20478;-87
2021/12/27 00:21:59;;;;;;;36.08;18.75;;;3.40;99.90;;;;;;5004928;28;20026;-86
2021/12/27 00:24:24;;;;;;;34.17;18.95;;;3.30;99.90;;;;;;5007347;28;20114;-86
2021/12/27 00:26:52;;;;;;;35.03;19.63;;;3.30;99.90;;;;;;4986497;28;20078;-86
2021/12/27 00:29:17;;;;;;;33.10;18.38;;;3.40;99.90;;;;;;4984666;28;20026;-86
2021/12/27 00:31:43;;;;;;;33.78;19.20;;;3.30;99.90;;;;;;4983674;28;20035;-86
2021/12/27 00:34:08;;;;;;;39.10;18.63;;;3.30;99.90;;;;;;4996663;28;20028;-86
2021/12/27 00:36:34;;;;;;;36.67;18.35;;;3.30;99.90;;;;;;4986200;28;20036;-85
2021/12/27 00:39:00;;;;;;;39.35;19.73;;;3.40;99.90;;;;;;4994316;28;20022;-87
2021/12/27 00:41:25;;;;;;;35.90;18.63;;;3.30;99.90;;;;;;4991977;28;20027;-87
2021/12/27 00:43:51;;;;;;;32.85;17.52;;;3.40;99.90;;;;;;4992072;28;20050;-88
2021/12/27 00:46:16;;;;;;;34.05;18.50;;;3.40;99.90;;;;;;4980873;28;20066;-87
2021/12/27 00:48:42;;;;;;;36.78;17.65;;;3.40;99.90;;;;;;4981405;28;20065;-88
2021/12/27 00:51:08;;;;;;;35.45;17.92;;;3.40;99.90;;;;;;4984196;28;20569;-87
2021/12/27 00:53:34;;;;;;;32.13;17.63;;;3.40;99.90;;;;;;4991542;28;20030;-87
2021/12/27 00:56:00;;;;;;;34.05;18.40;;;3.40;99.90;;;;;;4995377;28;20030;-87
2021/12/27 00:58:25;;;;;;;30.83;17.33;;;3.40;99.90;;;;;;4994520;28;20446;-88
2021/12/27 01:00:51;;;;;;;31.83;16.52;;;3.40;99.90;;;;;;4994131;28;20026;-88
2021/12/27 01:03:18;;;;;;;32.35;17.30;;;3.40;99.90;;;;;;4988739;28;20033;-87
2021/12/27 01:05:44;;;;;;;33.83;17.17;;;3.40;99.90;;;;;;4992613;28;20047;-87
2021/12/27 01:08:09;;;;;;;32.72;17.23;;;3.50;99.90;;;;;;4993627;28;20097;-87
2021/12/27 01:10:59;;;;;;;32.15;16.85;;;3.50;99.90;;;;;;4984570;28;20402;-87
2021/12/27 01:13:39;;;;;;;32.70;17.67;;;3.50;99.90;;;;;;4993864;28;20065;-87
2021/12/27 01:18:32;;;;;;;32.88;16.85;;;3.50;99.90;;;;;;4994178;28;20088;-87
2021/12/27 01:20:58;;;;;;;36.00;18.17;;;3.40;99.90;;;;;;4988102;28;20482;-87
2021/12/27 01:23:23;;;;;;;32.35;17.70;;;3.50;99.90;;;;;;4989364;28;20026;-87
2021/12/27 01:25:49;;;;;;;33.58;17.95;;;3.50;99.90;;;;;;4985368;28;20034;-87
2021/12/27 01:28:16;;;;;;;34.50;18.80;;;3.50;99.90;;;;;;4993085;28;20038;-87
2021/12/27 01:30:47;;;;;;;38.25;18.63;;;3.50;99.90;;;;;;4993727;28;20095;-87
2021/12/27 01:33:17;;;;;;;34.47;19.45;;;3.50;99.90;;;;;;4979283;28;20405;-87
2021/12/27 01:35:43;;;;;;;32.42;16.52;;;3.50;99.90;;;;;;4990157;28;20076;-87
2021/12/27 01:38:11;;;;;;;33.25;17.73;;;3.50;99.90;;;;;;5001703;28;20061;-87
2021/12/27 01:40:37;;;;;;;36.45;17.88;;;3.50;99.90;;;;;;4998134;28;20160;-87
2021/12/27 01:43:16;;;;;;;35.05;17.75;;;3.50;99.90;;;;;;5003467;28;20119;-87
2021/12/27 01:45:45;;;;;;;37.47;18.38;;;3.50;99.90;;;;;;4992867;28;20018;-87
2021/12/27 01:48:11;;;;;;;37.25;18.63;;;3.50;99.90;;;;;;5001464;28;20050;-87
2021/12/27 01:50:44;;;;;;;38.58;19.25;;;3.50;99.90;;;;;;4989017;28;20023;-87
2021/12/27 01:53:10;;;;;;;36.60;17.90;;;3.50;99.90;;;;;;4999641;28;20025;-87
2021/12/27 01:55:37;;;;;;;35.45;17.92;;;3.50;99.90;;;;;;4992201;28;20084;-87
2021/12/27 01:58:03;;;;;;;38.85;18.92;;;3.50;99.90;;;;;;4985026;28;20026;-87
2021/12/27 02:00:28;;;;;;;34.15;18.58;;;3.50;99.90;;;;;;4997053;28;20034;-87
2021/12/27 02:02:54;;;;;;;38.28;18.13;;;3.50;99.90;;;;;;4994414;28;20057;-87
2021/12/27 02:05:19;;;;;;;41.70;19.58;;;3.50;99.90;;;;;;4991016;28;20019;-87
2021/12/27 02:07:45;;;;;;;37.08;18.77;;;3.50;99.90;;;;;;4985896;28;20400;-87
2021/12/27 02:10:12;;;;;;;33.35;17.75;;;3.60;99.90;;;;;;4993794;28;20122;-87
2021/12/27 02:12:39;;;;;;;40.13;18.65;;;3.60;99.90;;;;;;4992244;28;20038;-87
2021/12/27 02:15:09;;;;;;;38.20;18.38;;;3.60;99.90;;;;;;4992799;28;20025;-87
2021/12/27 02:17:39;;;;;;;33.83;17.48;;;3.60;99.90;;;;;;4992762;28;20038;-88
2021/12/27 02:20:08;;;;;;;40.75;19.85;;;3.60;99.90;;;;;;4999449;28;20026;-87
2021/12/27 02:22:36;;;;;;;37.10;18.30;;;3.60;99.90;;;;;;4998131;28;20029;-87
2021/12/27 02:25:05;;;;;;;40.53;19.27;;;3.60;99.90;;;;;;5006390;28;20487;-88
2021/12/27 02:27:31;;;;;;;37.00;18.73;;;3.60;99.90;;;;;;5012871;28;20055;-87
2021/12/27 02:29:56;;;;;;;38.22;18.33;;;3.60;99.90;;;;;;4999978;28;20121;-87
2021/12/27 02:32:22;;;;;;;37.60;18.45;;;3.70;99.90;;;;;;4996673;28;20039;-87
2021/12/27 02:34:47;;;;;;;39.47;19.52;;;3.70;99.90;;;;;;4999121;28;20080;-87
2021/12/27 02:37:13;;;;;;;35.13;17.63;;;3.70;99.90;;;;;;4999021;28;20034;-87
2021/12/27 02:39:38;;;;;;;34.35;17.98;;;3.70;99.90;;;;;;4996692;28;20022;-87
2021/12/27 02:42:04;;;;;;;38.78;18.73;;;3.70;99.90;;;;;;5005333;28;20033;-87
2021/12/27 02:44:30;;;;;;;37.13;18.48;;;3.70;99.90;;;;;;4996565;28;20032;-87
2021/12/27 02:46:56;;;;;;;36.40;17.73;;;3.70;99.90;;;;;;4997924;28;20022;-87
2021/12/27 02:49:21;;;;;;;39.53;19.75;;;3.70;99.90;;;;;;5011155;28;20081;-87
2021/12/27 02:51:47;;;;;;;37.30;18.15;;;3.70;99.90;;;;;;4998001;28;20034;-87
2021/12/27 02:54:12;;;;;;;36.45;18.65;;;3.70;99.90;;;;;;4996746;28;20041;-87
2021/12/27 02:56:38;;;;;;;37.55;17.33;;;3.70;99.90;;;;;;5011129;28;20034;-87
2021/12/27 02:59:03;;;;;;;39.45;18.30;;;3.70;99.90;;;;;;5019132;28;20033;-87
2021/12/27 03:01:30;;;;;;;40.10;17.98;;;3.80;99.90;;;;;;5005738;28;20065;-87
2021/12/27 03:03:56;;;;;;;41.72;19.50;;;3.80;99.90;;;;;;4987760;28;20027;-86
2021/12/27 03:06:21;;;;;;;45.50;21.10;;;3.80;99.90;;;;;;4990891;28;20072;-87
2021/12/27 03:08:48;;;;;;;41.55;19.85;;;3.80;99.90;;;;;;4999237;28;20037;-87
2021/12/27 03:11:14;;;;;;;39.60;18.65;;;3.80;99.90;;;;;;4997031;28;20088;-87
2021/12/27 03:13:48;;;;;;;43.05;20.38;;;3.80;99.90;;;;;;4997476;28;20037;-87
2021/12/27 03:16:16;;;;;;;45.22;20.25;;;3.80;99.90;;;;;;5000122;28;20034;-87
2021/12/27 03:18:44;;;;;;;42.30;20.33;;;3.80;99.90;;;;;;5007984;28;20024;-87
2021/12/27 03:21:10;;;;;;;41.25;19.40;;;3.80;99.90;;;;;;4983991;28;20050;-87
2021/12/27 03:23:37;;;;;;;42.42;20.35;;;3.90;99.90;;;;;;4989815;28;20509;-87
2021/12/27 03:26:04;;;;;;;37.67;19.27;;;3.80;99.90;;;;;;4986302;28;20098;-87
2021/12/27 03:28:30;;;;;;;43.42;20.50;;;3.80;99.90;;;;;;4993242;28;20067;-88
2021/12/27 03:30:57;;;;;;;43.08;19.25;;;3.90;99.90;;;;;;4995545;28;20026;-87
2021/12/27 03:33:23;;;;;;;36.25;19.67;;;3.90;99.90;;;;;;4990343;28;20041;-88
2021/12/27 03:36:02;;;;;;;40.70;21.40;;;3.90;99.90;;;;;;4976230;28;20023;-88
2021/12/27 03:38:36;;;;;;;49.30;21.98;;;3.90;99.90;;;;;;4993694;28;20034;-87
2021/12/27 03:41:04;;;;;;;42.47;20.00;;;3.90;99.90;;;;;;4995438;28;20053;-87
2021/12/27 03:43:30;;;;;;;46.90;22.75;;;4.00;99.90;;;;;;4996565;28;20030;-88
2021/12/27 03:45:55;;;;;;;50.95;22.70;;;4.00;99.90;;;;;;4989526;28;20482;-88
2021/12/27 03:48:21;;;;;;;45.45;21.98;;;4.00;99.90;;;;;;4994266;28;20022;-87
2021/12/27 03:50:46;;;;;;;45.95;21.98;;;4.00;99.90;;;;;;4995103;28;20022;-88
2021/12/27 03:53:12;;;;;;;44.65;22.15;;;4.00;99.90;;;;;;4996400;28;20031;-87
2021/12/27 03:55:38;;;;;;;40.75;21.00;;;4.00;99.90;;;;;;4994125;28;20025;-88
2021/12/27 03:58:09;;;;;;;48.22;22.33;;;4.00;99.90;;;;;;4990903;28;20022;-87
2021/12/27 04:00:49;;;;;;;45.92;21.35;;;4.00;99.90;;;;;;4994378;28;20510;-87
2021/12/27 04:03:16;;;;;;;43.85;21.02;;;4.00;99.90;;;;;;4984145;28;20290;-87
2021/12/27 04:05:42;;;;;;;49.35;22.67;;;4.00;99.90;;;;;;4992671;28;20022;-87
2021/12/27 04:08:11;;;;;;;43.60;20.98;;;4.00;99.90;;;;;;4993495;28;20513;-87
2021/12/27 04:10:38;;;;;;;48.42;23.33;;;4.10;99.90;;;;;;4993270;28;20542;-87
2021/12/27 04:13:06;;;;;;;55.35;23.52;;;4.00;99.90;;;;;;4993258;28;20057;-86
2021/12/27 04:15:32;;;;;;;44.65;21.70;;;4.10;99.90;;;;;;4992749;28;20023;-87
2021/12/27 04:17:57;;;;;;;51.25;23.58;;;4.10;99.90;;;;;;4991429;28;20077;-87
2021/12/27 04:20:23;;;;;;;51.85;23.38;;;4.10;99.90;;;;;;4993899;28;20084;-87
2021/12/27 04:22:50;;;;;;;50.58;23.40;;;4.10;99.90;;;;;;4994404;28;20018;-88
2021/12/27 04:25:17;;;;;;;51.10;24.15;;;4.10;99.90;;;;;;4999109;28;20092;-87
2021/12/27 04:27:43;;;;;;;52.53;23.83;;;4.10;99.90;;;;;;4994566;28;20125;-87
2021/12/27 04:30:09;;;;;;;48.78;22.00;;;4.10;99.90;;;;;;4994749;28;20066;-88
2021/12/27 04:32:35;;;;;;;47.65;22.90;;;4.20;99.90;;;;;;4992749;28;20042;-87
2021/12/27 04:35:01;;;;;;;50.42;23.33;;;4.20;99.90;;;;;;4994574;28;20029;-87
2021/12/27 04:37:29;;;;;;;46.25;22.42;;;4.20;99.90;;;;;;4993684;28;20030;-87
2021/12/27 04:39:55;;;;;;;52.70;25.25;;;4.20;99.90;;;;;;4991463;28;20033;-87
2021/12/27 04:42:20;;;;;;;51.35;24.45;;;4.20;99.90;;;;;;4992174;28;20491;-87
2021/12/27 04:44:47;;;;;;;46.80;22.30;;;4.20;99.90;;;;;;4981317;28;20032;-87
2021/12/27 04:47:16;;;;;;;52.20;24.83;;;4.20;99.90;;;;;;4979584;28;20475;-87
2021/12/27 04:49:44;;;;;;;62.65;25.60;;;4.20;99.90;;;;;;5010088;28;20026;-87
2021/12/27 04:52:10;;;;;;;56.30;24.95;;;4.20;99.90;;;;;;4997459;28;20035;-87
2021/12/27 04:54:37;;;;;;;54.97;24.42;;;4.20;99.90;;;;;;4993962;28;20060;-87
2021/12/27 04:57:03;;;;;;;57.67;25.50;;;4.30;99.90;;;;;;4993605;28;20049;-88
2021/12/27 04:59:29;;;;;;;52.53;24.30;;;4.30;99.90;;;;;;4993644;28;20030;-88
2021/12/27 05:01:54;;;;;;;56.30;25.98;;;4.30;99.90;;;;;;4995478;28;20034;-87
2021/12/27 05:04:20;;;;;;;53.28;25.08;;;4.30;99.90;;;;;;5007433;28;20073;-87
2021/12/27 05:06:46;;;;;;;56.13;23.83;;;4.30;99.90;;;;;;4993948;28;20411;-88
2021/12/27 05:09:11;;;;;;;53.95;24.90;;;4.30;99.90;;;;;;4994024;28;20057;-88
2021/12/27 05:11:37;;;;;;;60.28;26.73;;;4.30;99.90;;;;;;4993115;28;20490;-87
2021/12/27 05:14:03;;;;;;;56.38;23.63;;;4.40;99.90;;;;;;4985715;28;20019;-87
2021/12/27 05:16:29;;;;;;;51.13;22.95;;;4.40;99.90;;;;;;4975708;28;20027;-87
2021/12/27 05:18:54;;;;;;;46.50;23.65;;;4.40;99.90;;;;;;4994009;28;20048;-87
2021/12/27 05:21:20;;;;;;;58.38;26.33;;;4.40;99.90;;;;;;4992817;28;20558;-88
2021/12/27 05:23:46;;;;;;;48.95;24.08;;;4.40;99.90;;;;;;4976039;28;20126;-87
2021/12/27 05:26:11;;;;;;;56.65;26.13;;;4.40;99.90;;;;;;4992803;28;20030;-88
2021/12/27 05:28:37;;;;;;;45.75;21.35;;;4.40;99.90;;;;;;5001362;28;20029;-88
2021/12/27 05:31:03;;;;;;;51.97;24.42;;;4.40;99.90;;;;;;5003027;28;20030;-87
2021/12/27 05:33:28;;;;;;;49.72;22.40;;;4.40;99.90;;;;;;4992058;28;20487;-87
2021/12/27 05:35:54;;;;;;;49.70;23.67;;;4.40;99.90;;;;;;4989481;28;20042;-87
2021/12/27 05:38:19;;;;;;;53.83;22.88;;;4.40;99.90;;;;;;4987659;28;20034;-87
2021/12/27 05:40:45;;;;;;;51.58;24.38;;;4.40;99.90;;;;;;4978153;28;20030;-88
2021/12/27 05:43:11;;;;;;;61.78;23.63;;;4.40;99.90;;;;;;4979016;28;20034;-88
2021/12/27 05:45:37;;;;;;;70.30;25.80;;;4.40;99.90;;;;;;4982655;28;20088;-88
2021/12/27 05:48:04;;;;;;;54.70;25.58;;;4.40;99.90;;;;;;4992372;28;20105;-88
2021/12/27 05:50:30;;;;;;;59.83;25.52;;;4.40;99.90;;;;;;4982686;28;20177;-87
2021/12/27 05:52:56;;;;;;;58.45;25.67;;;4.40;99.90;;;;;;4981721;28;20125;-88
2021/12/27 05:55:22;;;;;;;50.05;23.73;;;4.40;99.90;;;;;;4986504;28;20117;-88
2021/12/27 05:57:48;;;;;;;51.58;24.02;;;4.40;99.90;;;;;;4989311;28;20476;-87
2021/12/27 06:00:14;;;;;;;48.38;23.80;;;4.50;99.90;;;;;;4975736;28;20373;-87
2021/12/27 06:02:41;;;;;;;50.17;24.42;;;4.50;99.90;;;;;;4981465;28;20101;-87
2021/12/27 06:05:07;;;;;;;51.25;24.23;;;4.50;99.90;;;;;;4990461;28;20031;-87
2021/12/27 06:07:35;;;;;;;53.38;23.33;;;4.50;99.90;;;;;;4992347;28;20058;-87
2021/12/27 06:10:01;;;;;;;56.58;23.92;;;4.50;99.90;;;;;;4990662;28;20076;-87
2021/12/27 06:12:26;;;;;;;50.17;25.83;;;4.50;99.90;;;;;;4992183;28;20065;-87
2021/12/27 06:14:52;;;;;;;54.83;26.52;;;4.60;99.90;;;;;;4984553;28;20042;-87
2021/12/27 06:17:17;;;;;;;56.13;24.90;;;4.60;99.90;;;;;;4986288;28;20038;-87
2021/12/27 06:19:43;;;;;;;56.45;25.88;;;4.60;99.90;;;;;;4988125;28;20513;-87
2021/12/27 06:22:09;;;;;;;57.88;25.33;;;4.60;99.90;;;;;;4992472;28;20073;-87
2021/12/27 06:24:35;;;;;;;52.20;24.08;;;4.60;99.90;;;;;;4990519;28;20157;-87
2021/12/27 06:27:00;;;;;;;55.88;25.60;;;4.60;99.90;;;;;;4990915;28;20530;-87
2021/12/27 06:29:26;;;;;;;56.35;24.13;;;4.60;99.90;;;;;;4984347;28;20041;-87
2021/12/27 06:31:51;;;;;;;53.53;25.27;;;4.60;99.90;;;;;;4985496;28;20042;-88
2021/12/27 06:34:17;;;;;;;49.80;23.67;;;4.60;99.90;;;;;;4986163;28;20034;-87
2021/12/27 06:36:43;;;;;;;49.75;24.58;;;4.60;99.90;;;;;;4993337;28;20483;-88
2021/12/27 06:39:08;;;;;;;55.30;26.02;;;4.70;99.90;;;;;;4988273;28;20026;-87
2021/12/27 06:41:34;;;;;;;55.15;25.80;;;4.70;99.90;;;;;;4991886;28;20104;-86
2021/12/27 06:44:00;;;;;;;54.13;25.25;;;4.70;99.90;;;;;;4986912;28;20490;-87
2021/12/27 06:46:26;;;;;;;51.03;25.83;;;4.70;99.90;;;;;;4989496;28;20030;-87
2021/12/27 06:48:52;;;;;;;52.30;24.90;;;4.70;99.90;;;;;;4991245;28;20438;-87
2021/12/27 06:51:17;;;;;;;51.85;24.83;;;4.70;99.90;;;;;;4992087;28;20038;-88
2021/12/27 06:53:43;;;;;;;49.10;25.85;;;4.70;99.90;;;;;;4992161;28;20026;-88
2021/12/27 06:56:09;;;;;;;54.03;24.83;;;4.70;99.90;;;;;;4979465;28;20058;-88
2021/12/27 06:58:34;;;;;;;49.55;24.38;;;4.70;99.90;;;;;;4987104;28;20045;-87
2021/12/27 07:01:00;;;;;;;51.05;24.88;;;4.70;99.90;;;;;;4987302;28;20746;-88
2021/12/27 07:03:26;;;;;;;42.75;22.83;;;4.70;99.90;;;;;;4991480;28;20029;-87
2021/12/27 07:05:51;;;;;;;47.90;24.63;;;4.70;99.90;;;;;;4996100;28;20109;-87
2021/12/27 07:08:18;;;;;;;48.42;23.15;;;4.70;99.90;;;;;;4991022;28;20097;-87
2021/12/27 07:10:44;;;;;;;48.08;23.38;;;4.70;99.90;;;;;;4987974;28;20030;-87
2021/12/27 07:13:10;;;;;;;47.70;23.63;;;4.70;99.90;;;;;;4994176;28;20030;-86
2021/12/27 07:15:41;;;;;;;49.25;24.23;;;4.70;99.90;;;;;;4984823;28;20034;-87
2021/12/27 07:18:11;;;;;;;49.80;24.55;;;4.70;99.90;;;;;;4977586;28;20038;-87
2021/12/27 07:20:36;;;;;;;48.30;23.05;;;4.80;99.90;;;;;;4976761;28;20043;-87
2021/12/27 07:23:04;;;;;;;47.88;22.90;;;4.80;99.90;;;;;;4977069;28;20027;-88
2021/12/27 07:25:29;;;;;;;48.20;23.10;;;4.80;99.90;;;;;;4976491;28;20094;-87
2021/12/27 07:27:55;;;;;;;48.53;24.25;;;4.80;99.90;;;;;;4980572;28;20483;-86
2021/12/27 07:30:21;;;;;;;43.30;22.23;;;4.80;99.90;;;;;;4976283;28;20030;-86
2021/12/27 07:32:46;;;;;;;49.28;22.38;;;4.90;99.90;;;;;;4977039;28;20407;-87
2021/12/27 07:35:12;;;;;;;43.00;22.88;;;4.90;99.90;;;;;;4983128;28;20099;-87
2021/12/27 07:37:38;;;;;;;39.30;20.52;;;4.90;99.90;;;;;;4978626;28;20031;-87
2021/12/27 07:40:05;;;;;;;47.72;23.15;;;5.00;99.90;;;;;;4978511;28;20023;-86
2021/12/27 07:42:30;;;;;;;42.75;21.98;;;5.00;99.90;;;;;;4995654;28;20114;-86
2021/12/27 07:44:56;;;;;;;47.25;22.33;;;5.00;99.90;;;;;;4995968;28;20031;-86
2021/12/27 07:47:21;;;;;;;44.13;22.67;;;5.00;99.90;;;;;;4995553;28;20027;-88
2021/12/27 07:49:47;;;;;;;47.10;21.52;;;5.00;99.90;;;;;;4994222;28;20028;-88
2021/12/27 07:52:13;;;;;;;45.30;21.85;;;5.00;99.90;;;;;;4993697;28;20089;-88
2021/12/27 07:54:38;;;;;;;39.67;21.08;;;5.00;99.90;;;;;;4996844;28;20105;-88
2021/12/27 07:57:04;;;;;;;43.45;21.13;;;5.00;99.90;;;;;;4993978;28;20045;-88
2021/12/27 07:59:30;;;;;;;38.55;20.17;;;5.10;99.90;;;;;;4978483;28;20110;-87
2021/12/27 08:01:57;;;;;;;40.53;20.83;;;5.00;99.90;;;;;;4978144;28;20058;-86
2021/12/27 08:04:23;;;;;;;36.35;18.92;;;5.10;99.90;;;;;;4981357;28;20061;-86
2021/12/27 08:06:49;;;;;;;41.47;21.80;;;5.10;99.90;;;;;;4997097;28;20498;-86
2021/12/27 08:09:14;;;;;;;40.40;19.58;;;5.10;99.90;;;;;;4988750;28;20030;-87
2021/12/27 08:11:40;;;;;;;40.38;19.75;;;5.10;99.90;;;;;;4980122;28;20182;-87
2021/12/27 08:14:05;;;;;;;40.40;19.83;;;5.10;99.90;;;;;;4977493;28;20118;-86
2021/12/27 08:16:31;;;;;;;40.60;20.65;;;5.10;99.90;;;;;;4980520;28;20117;-87
2021/12/27 08:18:57;;;;;;;40.63;20.88;;;5.20;99.90;;;;;;4983928;28;20022;-88
2021/12/27 08:21:25;;;;;;;44.78;21.48;;;5.20;99.90;;;;;;4996295;28;20029;-87
2021/12/27 08:23:51;;;;;;;38.95;18.30;;;5.20;99.90;;;;;;4997852;28;20117;-86
2021/12/27 08:26:18;;;;;;;37.67;19.52;;;5.20;99.90;;;;;;4995501;28;20053;-86
2021/12/27 08:28:45;;;;;;;36.10;18.92;;;5.20;99.90;;;;;;4996473;28;20018;-86
2021/12/27 08:31:11;;;;;;;32.13;17.38;;;5.30;99.90;;;;;;4996072;28;20032;-87
2021/12/27 08:33:36;;;;;;;37.58;18.27;;;5.30;99.90;;;;;;4991886;28;20034;-87
2021/12/27 08:36:03;;;;;;;38.30;20.33;;;5.30;99.90;;;;;;4976424;28;20074;-87
2021/12/27 08:38:28;;;;;;;36.55;20.08;;;5.30;99.90;;;;;;4989178;28;20427;-87
2021/12/27 08:40:54;;;;;;;36.25;20.67;;;5.30;99.90;;;;;;4994230;28;20057;-87
2021/12/27 08:43:19;;;;;;;43.45;21.70;;;5.30;99.90;;;;;;4996480;28;20027;-87
2021/12/27 08:45:45;;;;;;;34.70;18.13;;;5.30;99.90;;;;;;4997682;28;20038;-87
2021/12/27 08:48:10;;;;;;;31.00;18.05;;;5.30;99.90;;;;;;4996474;28;20031;-87
2021/12/27 08:50:37;;;;;;;37.15;20.25;;;5.30;99.90;;;;;;4994164;28;20282;-87
2021/12/27 08:53:05;;;;;;;38.70;20.45;;;5.30;99.90;;;;;;5000555;28;20037;-87
2021/12/27 08:55:32;;;;;;;34.65;17.67;;;5.30;99.90;;;;;;5015578;28;20083;-87
2021/12/27 08:57:57;;;;;;;31.17;18.20;;;5.30;99.90;;;;;;4996966;28;20026;-87
2021/12/27 09:00:23;;;;;;;30.65;16.98;;;5.40;99.90;;;;;;4994391;28;20034;-87
2021/12/27 09:02:48;;;;;;;30.52;16.45;;;5.40;99.90;;;;;;4994381;28;20026;-87
2021/12/27 09:05:14;;;;;;;33.45;17.10;;;5.40;99.90;;;;;;4996230;28;20057;-87
2021/12/27 09:07:40;;;;;;;30.00;15.23;;;5.40;99.90;;;;;;4995625;28;20050;-87
2021/12/27 09:10:06;;;;;;;33.78;16.50;;;5.50;99.90;;;;;;4994232;28;20023;-87
2021/12/27 09:12:32;;;;;;;28.55;15.45;;;5.50;99.90;;;;;;4979006;28;20043;-86
2021/12/27 09:14:57;;;;;;;35.40;17.70;;;5.50;99.90;;;;;;4975853;28;20047;-87
2021/12/27 09:17:23;;;;;;;33.70;17.35;;;5.50;99.90;;;;;;4977560;28;20086;-87
2021/12/27 09:19:48;;;;;;;31.50;16.13;;;5.50;99.90;;;;;;4993893;28;20022;-87
2021/12/27 09:22:15;;;;;;;30.88;15.85;;;5.50;99.90;;;;;;4994635;28;20415;-87
2021/12/27 09:24:41;;;;;;;30.67;16.70;;;5.50;99.90;;;;;;4984374;28;20023;-87
2021/12/27 09:27:07;;;;;;;33.20;16.40;;;5.60;99.90;;;;;;4975396;28;20387;-87
2021/12/27 09:29:33;;;;;;;28.40;16.05;;;5.60;99.90;;;;;;4991256;28;20037;-87
2021/12/27 09:31:59;;;;;;;28.50;15.15;;;5.60;99.90;;;;;;4995534;28;20034;-87
2021/12/27 09:34:24;;;;;;;23.15;14.27;;;5.70;99.90;;;;;;4995178;28;20032;-87
2021/12/27 09:36:50;;;;;;;24.23;14.07;;;5.80;99.90;;;;;;4978548;28;20060;-87
2021/12/27 09:39:16;;;;;;;25.38;13.95;;;5.90;99.90;;;;;;4988582;28;20057;-87
2021/12/27 09:41:42;;;;;;;28.13;15.95;;;5.90;99.90;;;;;;4995675;28;20022;-87
2021/12/27 09:44:08;;;;;;;26.08;15.23;;;5.90;99.90;;;;;;4992027;28;20093;-88
2021/12/27 09:46:34;;;;;;;28.13;15.43;;;5.90;99.90;;;;;;4978620;28;20031;-87
2021/12/27 09:49:04;;;;;;;26.20;14.65;;;5.80;99.90;;;;;;4974022;28;20479;-88
2021/12/27 09:51:31;;;;;;;24.33;14.55;;;5.80;99.90;;;;;;4978394;28;20035;-87
2021/12/27 09:53:56;;;;;;;22.60;12.93;;;5.70;99.90;;;;;;4992567;28;20022;-88
2021/12/27 09:56:22;;;;;;;23.48;13.55;;;5.70;99.90;;;;;;4992793;28;20041;-88
2021/12/27 09:58:48;;;;;;;23.52;14.70;;;5.70;99.90;;;;;;4975555;28;20122;-88
2021/12/27 10:01:13;;;;;;;22.35;13.75;;;5.70;99.90;;;;;;4975338;28;20157;-87
2021/12/27 10:03:56;;;;;;;22.00;13.30;;;5.70;99.90;;;;;;4990811;28;20058;-86
2021/12/27 10:06:25;;;;;;;24.23;14.27;;;5.80;99.90;;;;;;5001542;28;20038;-87
2021/12/27 10:08:53;;;;;;;22.23;13.60;;;5.80;99.90;;;;;;4997107;28;20031;-88
2021/12/27 10:11:40;;;;;;;23.08;13.25;;;5.90;99.90;;;;;;4995637;28;20066;-88
2021/12/27 10:14:10;;;;;;;23.90;14.13;;;6.00;99.90;;;;;;4993458;28;20027;-87
2021/12/27 10:16:59;;;;;;;22.95;13.43;;;6.00;99.90;;;;;;4980607;28;20023;-87
2021/12/27 10:19:25;;;;;;;21.42;12.30;;;6.10;99.90;;;;;;4974426;28;20031;-87
2021/12/27 10:21:52;;;;;;;22.85;13.60;;;6.20;99.90;;;;;;4985693;28;20042;-87
2021/12/27 10:24:21;;;;;;;23.10;13.65;;;6.20;99.90;;;;;;4993438;28;20052;-87
2021/12/27 10:26:52;;;;;;;22.95;13.30;;;6.20;99.90;;;;;;4994039;28;20026;-87
2021/12/27 10:29:19;;;;;;;20.43;12.43;;;6.30;99.90;;;;;;4991830;28;20066;-88
2021/12/27 10:31:52;;;;;;;23.27;12.40;;;6.30;99.90;;;;;;4992363;28;20081;-87
2021/12/27 10:34:19;;;;;;;20.48;10.60;;;6.40;99.90;;;;;;4973252;28;20059;-87
2021/12/27 10:37:11;;;;;;;21.52;12.13;;;6.40;99.90;;;;;;4974750;28;20040;-88
2021/12/27 10:39:48;;;;;;;20.25;11.57;;;6.50;99.90;;;;;;4995322;28;20038;-87
2021/12/27 10:42:42;;;;;;;19.50;11.65;;;6.50;99.90;;;;;;4995184;28;20057;-87
2021/12/27 10:45:13;;;;;;;20.58;12.10;;;6.60;99.90;;;;;;4972144;28;20034;-87
2021/12/27 10:47:41;;;;;;;18.42;11.52;;;6.70;99.90;;;;;;4977844;28;20031;-87
2021/12/27 10:50:10;;;;;;;18.75;11.80;;;6.70;99.90;;;;;;4991016;28;20041;-87
2021/12/27 10:52:45;;;;;;;19.45;11.27;;;6.80;99.90;;;;;;4994760;28;20125;-87
2021/12/27 10:55:13;;;;;;;17.83;11.10;;;6.90;99.90;;;;;;4996283;28;20113;-87
2021/12/27 10:57:38;;;;;;;18.55;11.85;;;6.90;99.90;;;;;;4996163;28;20062;-87
2021/12/27 11:00:21;;;;;;;16.95;11.10;;;6.90;99.90;;;;;;4981612;28;20027;-87
2021/12/27 11:02:47;;;;;;;17.10;10.65;;;6.90;99.90;;;;;;4995813;28;20450;-87
2021/12/27 11:05:25;;;;;;;21.35;11.13;;;7.00;99.90;;;;;;4992685;28;20034;-89
2021/12/27 11:07:54;;;;;;;16.15;10.40;;;7.00;99.90;;;;;;4997726;28;20049;-87
2021/12/27 11:10:20;;;;;;;17.30;10.65;;;7.10;99.90;;;;;;4993668;28;20034;-87
2021/12/27 11:12:50;;;;;;;15.77;10.50;;;7.10;99.90;;;;;;4996121;28;20097;-88
2021/12/27 11:15:16;;;;;;;15.65;9.95;;;7.00;99.90;;;;;;4994435;28;20479;-87
2021/12/27 11:17:42;;;;;;;15.40;9.25;;;7.00;99.90;;;;;;4982703;28;20045;-87
2021/12/27 11:20:09;;;;;;;17.35;10.20;;;7.00;99.90;;;;;;4983223;28;20026;-87
2021/12/27 11:22:43;;;;;;;15.85;9.70;;;7.00;99.90;;;;;;4994412;28;20537;-88
2021/12/27 11:25:21;;;;;;;15.77;10.18;;;7.00;99.90;;;;;;4995519;28;20029;-87
2021/12/27 11:27:48;;;;;;;16.17;10.48;;;7.10;99.90;;;;;;4995388;28;20483;-87
2021/12/27 11:30:16;;;;;;;15.95;11.10;;;7.00;99.90;;;;;;4994941;28;20391;-87
2021/12/27 11:33:05;;;;;;;16.00;10.38;;;7.10;99.90;;;;;;4995747;28;20038;-87
2021/12/27 11:35:51;;;;;;;17.60;10.32;;;7.20;99.90;;;;;;5016756;28;20359;-87
2021/12/27 11:38:39;;;;;;;16.40;11.02;;;7.20;99.90;;;;;;4997790;28;20073;-87
2021/12/27 11:41:24;;;;;;;16.48;9.95;;;7.30;99.90;;;;;;4989550;28;20026;-85
2021/12/27 11:43:55;;;;;;;18.70;11.05;;;7.40;99.90;;;;;;4990970;28;20061;-86
2021/12/27 11:46:26;;;;;;;17.20;10.55;;;7.40;99.90;;;;;;4996750;28;20117;-86
2021/12/27 11:48:54;;;;;;;14.00;9.40;;;7.50;99.90;;;;;;4989295;28;20026;-86
2021/12/27 11:51:33;;;;;;;19.60;10.70;;;7.50;99.90;;;;;;4993630;28;20026;-86
2021/12/27 11:54:00;;;;;;;16.27;9.60;;;7.50;99.90;;;;;;4996205;28;20507;-85
2021/12/27 11:56:53;;;;;;;16.17;10.00;;;7.50;99.90;;;;;;4995619;28;20026;-85
2021/12/27 11:59:22;;;;;;;17.20;10.70;;;7.60;99.90;;;;;;4980122;28;20026;-85
2021/12/27 12:01:53;;;;;;;18.40;10.30;;;7.60;99.90;;;;;;4980444;28;20034;-85
2021/12/27 12:04:40;;;;;;;16.98;10.65;;;7.60;99.90;;;;;;4987518;28;20054;-87
2021/12/27 12:07:08;;;;;;;14.93;9.80;;;7.60;99.90;;;;;;4989572;28;20054;-87
2021/12/27 12:09:45;;;;;;;19.17;11.25;;;7.60;99.90;;;;;;4995805;28;20023;-86
2021/12/27 12:12:13;;;;;;;13.43;9.02;;;7.60;99.90;;;;;;4993396;28;20505;-87
2021/12/27 12:14:39;;;;;;;15.27;10.70;;;7.50;99.90;;;;;;4995302;28;20145;-87
2021/12/27 12:17:15;;;;;;;14.40;9.35;;;7.60;99.90;;;;;;4993161;28;20031;-85
2021/12/27 12:19:43;;;;;;;16.20;9.98;;;7.60;99.90;;;;;;4990553;28;20066;-84
2021/12/27 12:22:38;;;;;;;14.60;10.05;;;7.60;99.90;;;;;;4993435;28;20028;-86
2021/12/27 12:25:13;;;;;;;14.52;9.45;;;7.70;99.90;;;;;;4995153;28;20509;-86
2021/12/27 12:27:54;;;;;;;16.83;9.43;;;7.80;99.90;;;;;;4992798;28;20038;-86
2021/12/27 12:30:20;;;;;;;15.13;9.63;;;7.80;99.90;;;;;;4994437;28;20046;-86
2021/12/27 12:33:13;;;;;;;15.95;9.90;;;7.80;99.90;;;;;;4992135;28;20499;-86
2021/12/27 12:35:51;;;;;;;16.30;10.00;;;7.80;99.90;;;;;;4992959;28;20030;-86
2021/12/27 12:38:28;;;;;;;16.70;10.70;;;7.90;99.90;;;;;;4991879;28;20022;-86
2021/12/27 12:41:06;;;;;;;17.25;10.27;;;8.00;99.90;;;;;;4994151;28;20022;-86
2021/12/27 12:43:39;;;;;;;17.80;10.05;;;8.00;99.90;;;;;;4991321;28;20026;-86